Aérodrome :
LOGIN :

S'inscrire | Disclaimer

   EN    FR    IT 

 










Légende :    VFR   VFR Marginal   IFR   IFR Intensif   IFR Très Intensif
Visi : 
Plafond : 
>= 8 km
>= 3000ft
5 à 8 km
1000 à 3000 ft
1500m à 5 km
500 à 1000 ft
800 à 1500m
200 à 500 ft
< 800m
< 200 ft
Symboles :   Orages  Brouillard  Fortes neiges  Fortes précipitations  Vent > 20 kt
SIGMETs :   Divers  Orages  Givrage  Turbulence  Onde Orograph.  Cendres Volcan.






- Altitude de l'aérodrome : 614 ft
- Code IATA : CRL


EBCI - Charleroi

DERNIER METAR :
  • 272150Z 20009KT 0700 R24/P2000N FG BKN001 OVC002 04/04 Q1012 BECMG 1200 BR

METARs EXPIRÉS :
  • 272120Z 20008KT 0400 R24/1900N FG BKN001 OVC002 04/04 Q1012 BECMG 1200 BR
  • 272050Z 19008KT 0400 R24/1700N FG BKN001 OVC002 04/04 Q1012 NOSIG
  • 272020Z 20007KT 0200 R24/1300N FG OVC001 04/04 Q1012 NOSIG
  • 271950Z 19008KT 0200 R24/0700N FG OVC001 04/04 Q1012 NOSIG
  • 271920Z 19008KT 0200 R24/0600N FG OVC001 04/04 Q1013 NOSIG

TAF TAF EBCI
Valide du 27 à 18h jusqu'au 29 à 00h UTC


271710Z 2718/2824 22006KT 3000 BR SCT002 BKN005
TEMPO 2718/2801 0400 FG -DZ BKN001
TEMPO 2801/2811 2000 RADZ SCT002 BKN003
BECMG 2811/2813 26015G25KT 8000 NSW SCT005 BKN010
PROB30
TEMPO 2812/2818 3500 SHRA BKN005 BKN010TCU
TEMPO 2818/2822 BKN015
BECMG 2818/2820 24010KT



MET'MAP, la Météo Aéronautique d'un coup d'oeil ! - Copyright ORBIFLY Décembre 2007 - Disclaimer

ORBIFLY MET'MAP TEAM :

Programmation & Développement : Alexandra Zaïnal
Sur une idée originale de : Baudouin d'Aumeries
Assistance à la programmation : Marc-Olivier Méhu
Soutien technique & logistique : Manuel Goepfert

Contact : metmap@orbifly.com




SOURCES & CREDITS :

   NOAA